Search for airport 
image banner adimage banner adimage banner ad
image banner ad

PN13 - C&W Milliron Flying Field

Located in Sigel, United States

ICAO - PN13, IATA -

Data provided by Airmate  

General information

Coordinates: N41°17'14" W79°9'59"
Elevation is 1700 feet MSL.
Magnetic variation is -09° East
View others Airports in Pennsylvania

Operational data

Special qualification required
Current time UTC:
Current local time:
Weather at : KDUJ - Dubois Rgnl ( 25 km )
METAR: KDUJ 091605Z AUTO 09004KT 1/4SM SN FG OVC003 01/00 A2997 RMK AO2 P0003 T00110000
TAF: KDUJ 091552Z 0916/1012 11007KT 5SM -RA BR OVC010 TEMPO 0916/0918 1SM -SN BKN005 FM091800 08010KT 3SM SHRA BR OVC005 FM100000 02008KT 4SM -SHRA BR OVC005 FM100500 36004KT P6SM BKN006 FM101000 29005KT P6SM BKN010
View NOTAMs / SUP AIP / TFR affecting this airport [VIEW]
Communications frequencies: [VIEW]

Runways:

RWY identifierQFULength (ft)Width (ft)SurfaceLDA (ft)
092000100GRASS
272000100GRASS
121550100GRASS
301550100GRASS

Airport contact information

Address: Sigel United States

Satellite view of PN13